sensor_id;sensor_type;location;lat;lon;timestamp;temperature;humidity
4739;DHT22;2383;48.632;10.156;2022-10-16T00:03:10;20.50;99.90
4739;DHT22;2383;48.632;10.156;2022-10-16T00:07:15;20.30;99.90
4739;DHT22;2383;48.632;10.156;2022-10-16T00:15:20;20.10;99.90
4739;DHT22;2383;48.632;10.156;2022-10-16T00:19:22;20.40;99.90
4739;DHT22;2383;48.632;10.156;2022-10-16T00:23:23;20.50;99.90
4739;DHT22;2383;48.632;10.156;2022-10-16T00:27:26;20.30;99.90
4739;DHT22;2383;48.632;10.156;2022-10-16T00:31:28;20.50;99.90
4739;DHT22;2383;48.632;10.156;2022-10-16T00:35:31;20.00;99.90
4739;DHT22;2383;48.632;10.156;2022-10-16T00:39:33;20.30;99.90
4739;DHT22;2383;48.632;10.156;2022-10-16T00:43:55;19.90;99.90
4739;DHT22;2383;48.632;10.156;2022-10-16T00:47:57;20.20;99.90
4739;DHT22;2383;48.632;10.156;2022-10-16T00:51:59;20.30;99.90
4739;DHT22;2383;48.632;10.156;2022-10-16T00:56:02;20.00;99.90
4739;DHT22;2383;48.632;10.156;2022-10-16T01:00:07;20.10;99.90
4739;DHT22;2383;48.632;10.156;2022-10-16T01:04:09;19.90;99.90
4739;DHT22;2383;48.632;10.156;2022-10-16T01:08:15;20.10;99.90
4739;DHT22;2383;48.632;10.156;2022-10-16T01:16:55;19.60;99.90
4739;DHT22;2383;48.632;10.156;2022-10-16T01:21:11;19.80;99.90
4739;DHT22;2383;48.632;10.156;2022-10-16T01:25:25;19.30;99.90
4739;DHT22;2383;48.632;10.156;2022-10-16T01:29:54;19.30;99.90
4739;DHT22;2383;48.632;10.156;2022-10-16T01:34:09;19.50;99.90
4739;DHT22;2383;48.632;10.156;2022-10-16T01:38:49;19.30;99.90
4739;DHT22;2383;48.632;10.156;2022-10-16T01:42:49;18.90;99.90
4739;DHT22;2383;48.632;10.156;2022-10-16T01:46:52;18.80;99.90
4739;DHT22;2383;48.632;10.156;2022-10-16T01:51:15;19.10;99.90
4739;DHT22;2383;48.632;10.156;2022-10-16T01:55:25;19.10;99.90
4739;DHT22;2383;48.632;10.156;2022-10-16T01:59:31;19.00;99.90
4739;DHT22;2383;48.632;10.156;2022-10-16T02:03:35;18.80;99.90
4739;DHT22;2383;48.632;10.156;2022-10-16T02:07:38;18.90;99.90
4739;DHT22;2383;48.632;10.156;2022-10-16T02:11:40;18.90;99.90
4739;DHT22;2383;48.632;10.156;2022-10-16T02:15:42;18.60;99.90
4739;DHT22;2383;48.632;10.156;2022-10-16T02:19:47;18.20;99.90
4739;DHT22;2383;48.632;10.156;2022-10-16T02:24:05;18.10;99.90
4739;DHT22;2383;48.632;10.156;2022-10-16T02:28:17;18.40;99.90
4739;DHT22;2383;48.632;10.156;2022-10-16T02:32:23;18.40;99.90
4739;DHT22;2383;48.632;10.156;2022-10-16T02:36:27;18.60;99.90
4739;DHT22;2383;48.632;10.156;2022-10-16T02:40:29;18.80;99.90
4739;DHT22;2383;48.632;10.156;2022-10-16T02:44:31;19.00;99.90
4739;DHT22;2383;48.632;10.156;2022-10-16T02:48:33;19.00;99.90
4739;DHT22;2383;48.632;10.156;2022-10-16T02:52:34;18.80;99.90
4739;DHT22;2383;48.632;10.156;2022-10-16T02:56:36;18.60;99.90
4739;DHT22;2383;48.632;10.156;2022-10-16T03:00:39;18.80;99.90
4739;DHT22;2383;48.632;10.156;2022-10-16T03:04:41;18.60;99.90
4739;DHT22;2383;48.632;10.156;2022-10-16T03:08:43;18.50;99.90
4739;DHT22;2383;48.632;10.156;2022-10-16T03:12:45;18.70;99.90
4739;DHT22;2383;48.632;10.156;2022-10-16T03:16:55;18.90;99.90
4739;DHT22;2383;48.632;10.156;2022-10-16T03:20:56;19.20;99.90
4739;DHT22;2383;48.632;10.156;2022-10-16T03:24:58;19.10;99.90
4739;DHT22;2383;48.632;10.156;2022-10-16T03:29:00;19.20;99.90
4739;DHT22;2383;48.632;10.156;2022-10-16T03:33:06;18.60;99.90
4739;DHT22;2383;48.632;10.156;2022-10-16T03:37:09;18.50;99.90
4739;DHT22;2383;48.632;10.156;2022-10-16T03:41:11;18.60;99.90
4739;DHT22;2383;48.632;10.156;2022-10-16T03:45:13;18.90;99.90
4739;DHT22;2383;48.632;10.156;2022-10-16T03:49:14;19.10;99.90
4739;DHT22;2383;48.632;10.156;2022-10-16T03:53:16;19.20;99.90
4739;DHT22;2383;48.632;10.156;2022-10-16T03:57:19;19.30;99.90
4739;DHT22;2383;48.632;10.156;2022-10-16T04:01:22;19.00;99.90
4739;DHT22;2383;48.632;10.156;2022-10-16T04:05:23;18.90;99.90
4739;DHT22;2383;48.632;10.156;2022-10-16T04:09:26;19.00;99.90
4739;DHT22;2383;48.632;10.156;2022-10-16T04:13:27;19.10;99.90
4739;DHT22;2383;48.632;10.156;2022-10-16T04:17:29;19.00;99.90
4739;DHT22;2383;48.632;10.156;2022-10-16T04:21:31;18.90;99.90
4739;DHT22;2383;48.632;10.156;2022-10-16T04:25:33;19.20;99.90
4739;DHT22;2383;48.632;10.156;2022-10-16T04:29:35;19.10;99.90
4739;DHT22;2383;48.632;10.156;2022-10-16T04:33:36;19.00;99.90
4739;DHT22;2383;48.632;10.156;2022-10-16T04:37:38;18.90;99.90
4739;DHT22;2383;48.632;10.156;2022-10-16T04:41:40;19.00;99.90
4739;DHT22;2383;48.632;10.156;2022-10-16T04:45:42;18.90;99.90
4739;DHT22;2383;48.632;10.156;2022-10-16T04:49:43;19.10;99.90
4739;DHT22;2383;48.632;10.156;2022-10-16T04:53:45;18.90;99.90
4739;DHT22;2383;48.632;10.156;2022-10-16T04:57:47;18.90;99.90
4739;DHT22;2383;48.632;10.156;2022-10-16T05:01:49;19.00;99.90
4739;DHT22;2383;48.632;10.156;2022-10-16T05:05:51;18.70;99.90
4739;DHT22;2383;48.632;10.156;2022-10-16T05:09:54;18.70;99.90
4739;DHT22;2383;48.632;10.156;2022-10-16T05:13:56;18.50;99.90
4739;DHT22;2383;48.632;10.156;2022-10-16T05:17:58;18.80;99.90
4739;DHT22;2383;48.632;10.156;2022-10-16T05:21:59;18.60;99.90
4739;DHT22;2383;48.632;10.156;2022-10-16T05:26:01;18.90;99.90
4739;DHT22;2383;48.632;10.156;2022-10-16T05:30:03;18.50;99.90
4739;DHT22;2383;48.632;10.156;2022-10-16T05:34:09;18.50;99.90
4739;DHT22;2383;48.632;10.156;2022-10-16T05:38:10;18.40;99.90
4739;DHT22;2383;48.632;10.156;2022-10-16T05:42:14;18.70;99.90
4739;DHT22;2383;48.632;10.156;2022-10-16T05:46:16;18.70;99.90
4739;DHT22;2383;48.632;10.156;2022-10-16T05:50:18;18.60;99.90
4739;DHT22;2383;48.632;10.156;2022-10-16T05:54:20;18.60;99.90
4739;DHT22;2383;48.632;10.156;2022-10-16T05:58:22;18.80;99.90
4739;DHT22;2383;48.632;10.156;2022-10-16T06:02:26;19.20;99.90
4739;DHT22;2383;48.632;10.156;2022-10-16T06:06:28;18.90;99.90
4739;DHT22;2383;48.632;10.156;2022-10-16T06:10:31;18.80;99.90
4739;DHT22;2383;48.632;10.156;2022-10-16T06:14:32;18.90;99.90
4739;DHT22;2383;48.632;10.156;2022-10-16T06:18:34;19.10;99.90
4739;DHT22;2383;48.632;10.156;2022-10-16T06:22:36;19.00;99.90
4739;DHT22;2383;48.632;10.156;2022-10-16T06:26:38;18.90;99.90
4739;DHT22;2383;48.632;10.156;2022-10-16T06:30:40;18.90;99.90
4739;DHT22;2383;48.632;10.156;2022-10-16T06:34:56;18.90;99.90
4739;DHT22;2383;48.632;10.156;2022-10-16T06:38:58;18.60;99.90
4739;DHT22;2383;48.632;10.156;2022-10-16T06:43:00;18.90;99.90
4739;DHT22;2383;48.632;10.156;2022-10-16T06:47:01;19.30;99.90
4739;DHT22;2383;48.632;10.156;2022-10-16T06:51:09;19.40;99.90
4739;DHT22;2383;48.632;10.156;2022-10-16T06:55:11;19.40;99.90
4739;DHT22;2383;48.632;10.156;2022-10-16T06:59:13;19.30;99.90
4739;DHT22;2383;48.632;10.156;2022-10-16T07:03:15;19.10;99.90
4739;DHT22;2383;48.632;10.156;2022-10-16T07:07:17;19.60;99.90
4739;DHT22;2383;48.632;10.156;2022-10-16T07:11:20;19.50;99.90
4739;DHT22;2383;48.632;10.156;2022-10-16T07:15:24;19.60;99.90
4739;DHT22;2383;48.632;10.156;2022-10-16T07:19:26;19.60;99.90
4739;DHT22;2383;48.632;10.156;2022-10-16T07:23:32;19.20;99.90
4739;DHT22;2383;48.632;10.156;2022-10-16T07:27:34;19.30;99.90
4739;DHT22;2383;48.632;10.156;2022-10-16T07:31:41;19.10;99.90
4739;DHT22;2383;48.632;10.156;2022-10-16T07:35:53;19.60;99.90
4739;DHT22;2383;48.632;10.156;2022-10-16T07:39:55;20.00;99.90
4739;DHT22;2383;48.632;10.156;2022-10-16T07:43:57;20.20;99.90
4739;DHT22;2383;48.632;10.156;2022-10-16T07:48:01;20.60;99.90
4739;DHT22;2383;48.632;10.156;2022-10-16T07:52:03;20.40;99.90
4739;DHT22;2383;48.632;10.156;2022-10-16T07:56:06;20.80;99.90
4739;DHT22;2383;48.632;10.156;2022-10-16T08:00:09;20.50;99.90
4739;DHT22;2383;48.632;10.156;2022-10-16T08:04:15;20.50;99.90
4739;DHT22;2383;48.632;10.156;2022-10-16T08:08:18;20.60;99.90
4739;DHT22;2383;48.632;10.156;2022-10-16T08:12:20;20.70;99.90
4739;DHT22;2383;48.632;10.156;2022-10-16T08:16:21;20.30;99.90
4739;DHT22;2383;48.632;10.156;2022-10-16T08:20:24;20.50;99.90
4739;DHT22;2383;48.632;10.156;2022-10-16T08:24:26;20.60;99.90
4739;DHT22;2383;48.632;10.156;2022-10-16T08:28:28;20.80;99.90
4739;DHT22;2383;48.632;10.156;2022-10-16T08:32:30;20.80;99.90
4739;DHT22;2383;48.632;10.156;2022-10-16T08:36:34;20.90;99.90
4739;DHT22;2383;48.632;10.156;2022-10-16T08:40:37;21.00;99.90
4739;DHT22;2383;48.632;10.156;2022-10-16T08:48:50;20.00;99.90
4739;DHT22;2383;48.632;10.156;2022-10-16T08:52:53;20.60;99.90
4739;DHT22;2383;48.632;10.156;2022-10-16T08:57:09;20.60;99.90
4739;DHT22;2383;48.632;10.156;2022-10-16T09:01:13;20.80;99.90
4739;DHT22;2383;48.632;10.156;2022-10-16T09:05:35;21.10;99.90
4739;DHT22;2383;48.632;10.156;2022-10-16T09:27:14;21.50;99.90
4739;DHT22;2383;48.632;10.156;2022-10-16T09:31:19;21.30;99.90
4739;DHT22;2383;48.632;10.156;2022-10-16T09:35:25;21.10;99.90
4739;DHT22;2383;48.632;10.156;2022-10-16T09:39:28;21.30;99.90
4739;DHT22;2383;48.632;10.156;2022-10-16T09:43:54;21.60;99.90
4739;DHT22;2383;48.632;10.156;2022-10-16T09:48:09;21.80;99.90
4739;DHT22;2383;48.632;10.156;2022-10-16T09:52:13;21.90;99.90
4739;DHT22;2383;48.632;10.156;2022-10-16T09:56:26;21.70;99.90
4739;DHT22;2383;48.632;10.156;2022-10-16T10:00:28;21.90;99.90
4739;DHT22;2383;48.632;10.156;2022-10-16T10:04:57;22.10;99.90
4739;DHT22;2383;48.632;10.156;2022-10-16T10:09:00;21.50;99.90
4739;DHT22;2383;48.632;10.156;2022-10-16T10:13:03;21.60;99.90
4739;DHT22;2383;48.632;10.156;2022-10-16T10:21:13;22.00;99.90
4739;DHT22;2383;48.632;10.156;2022-10-16T10:25:29;22.30;99.90
4739;DHT22;2383;48.632;10.156;2022-10-16T10:34:32;22.30;99.90
4739;DHT22;2383;48.632;10.156;2022-10-16T11:06:39;22.60;99.90
4739;DHT22;2383;48.632;10.156;2022-10-16T11:11:11;22.50;99.90
4739;DHT22;2383;48.632;10.156;2022-10-16T11:15:29;22.70;99.90
4739;DHT22;2383;48.632;10.156;2022-10-16T11:19:50;22.60;99.90
4739;DHT22;2383;48.632;10.156;2022-10-16T11:24:03;22.50;99.90
4739;DHT22;2383;48.632;10.156;2022-10-16T11:33:02;22.50;99.90
4739;DHT22;2383;48.632;10.156;2022-10-16T11:37:14;22.50;99.90
4739;DHT22;2383;48.632;10.156;2022-10-16T11:49:28;22.20;99.90
4739;DHT22;2383;48.632;10.156;2022-10-16T11:53:57;22.20;99.90
4739;DHT22;2383;48.632;10.156;2022-10-16T12:02:38;22.70;99.90
4739;DHT22;2383;48.632;10.156;2022-10-16T12:06:57;22.70;99.90
4739;DHT22;2383;48.632;10.156;2022-10-16T12:15:33;22.40;99.90
4739;DHT22;2383;48.632;10.156;2022-10-16T12:28:31;23.00;99.90
4739;DHT22;2383;48.632;10.156;2022-10-16T12:32:39;22.80;99.90
4739;DHT22;2383;48.632;10.156;2022-10-16T12:36:48;22.80;99.90
4739;DHT22;2383;48.632;10.156;2022-10-16T12:41:00;22.50;99.90
4739;DHT22;2383;48.632;10.156;2022-10-16T12:49:37;23.10;99.90
4739;DHT22;2383;48.632;10.156;2022-10-16T12:53:40;23.10;99.90
4739;DHT22;2383;48.632;10.156;2022-10-16T13:16:30;23.20;99.90
4739;DHT22;2383;48.632;10.156;2022-10-16T13:29:16;23.60;99.90
4739;DHT22;2383;48.632;10.156;2022-10-16T13:33:40;23.60;99.90
4739;DHT22;2383;48.632;10.156;2022-10-16T13:37:43;23.70;99.90
4739;DHT22;2383;48.632;10.156;2022-10-16T13:41:45;23.60;99.90
4739;DHT22;2383;48.632;10.156;2022-10-16T13:46:17;23.60;99.90
4739;DHT22;2383;48.632;10.156;2022-10-16T13:50:19;23.70;99.90
4739;DHT22;2383;48.632;10.156;2022-10-16T13:54:21;23.80;99.90
4739;DHT22;2383;48.632;10.156;2022-10-16T13:58:23;23.90;99.90
4739;DHT22;2383;48.632;10.156;2022-10-16T14:02:38;24.00;99.90
4739;DHT22;2383;48.632;10.156;2022-10-16T14:06:49;23.90;99.90
4739;DHT22;2383;48.632;10.156;2022-10-16T14:10:54;24.10;99.90
4739;DHT22;2383;48.632;10.156;2022-10-16T14:14:59;24.10;99.90
4739;DHT22;2383;48.632;10.156;2022-10-16T14:19:04;24.00;99.90
4739;DHT22;2383;48.632;10.156;2022-10-16T14:23:30;24.10;99.90
4739;DHT22;2383;48.632;10.156;2022-10-16T14:27:35;24.10;99.90
4739;DHT22;2383;48.632;10.156;2022-10-16T14:31:37;24.00;99.90
4739;DHT22;2383;48.632;10.156;2022-10-16T14:35:41;24.00;99.90
4739;DHT22;2383;48.632;10.156;2022-10-16T14:39:49;24.10;99.90
4739;DHT22;2383;48.632;10.156;2022-10-16T14:43:54;24.20;99.90
4739;DHT22;2383;48.632;10.156;2022-10-16T14:48:06;24.10;99.90
4739;DHT22;2383;48.632;10.156;2022-10-16T14:52:20;24.10;99.90
4739;DHT22;2383;48.632;10.156;2022-10-16T14:56:25;24.20;99.90
4739;DHT22;2383;48.632;10.156;2022-10-16T15:00:28;24.30;99.90
4739;DHT22;2383;48.632;10.156;2022-10-16T15:04:29;24.30;99.90
4739;DHT22;2383;48.632;10.156;2022-10-16T15:08:31;24.20;99.90
4739;DHT22;2383;48.632;10.156;2022-10-16T15:12:33;24.20;99.90
4739;DHT22;2383;48.632;10.156;2022-10-16T15:16:37;24.20;99.90
4739;DHT22;2383;48.632;10.156;2022-10-16T15:20:39;24.20;99.90
4739;DHT22;2383;48.632;10.156;2022-10-16T15:24:41;24.30;99.90
4739;DHT22;2383;48.632;10.156;2022-10-16T15:28:42;24.30;99.90
4739;DHT22;2383;48.632;10.156;2022-10-16T15:32:44;24.30;99.90
4739;DHT22;2383;48.632;10.156;2022-10-16T15:36:46;24.20;99.90
4739;DHT22;2383;48.632;10.156;2022-10-16T15:40:49;24.20;99.90
4739;DHT22;2383;48.632;10.156;2022-10-16T15:44:51;24.20;99.90
4739;DHT22;2383;48.632;10.156;2022-10-16T15:48:57;24.10;99.90
4739;DHT22;2383;48.632;10.156;2022-10-16T15:53:04;24.10;99.90
4739;DHT22;2383;48.632;10.156;2022-10-16T15:57:06;23.90;99.90
4739;DHT22;2383;48.632;10.156;2022-10-16T16:01:08;23.90;99.90
4739;DHT22;2383;48.632;10.156;2022-10-16T16:05:11;23.90;99.90
4739;DHT22;2383;48.632;10.156;2022-10-16T16:09:15;23.80;99.90
4739;DHT22;2383;48.632;10.156;2022-10-16T16:13:17;23.80;99.90
4739;DHT22;2383;48.632;10.156;2022-10-16T16:17:18;23.80;99.90
4739;DHT22;2383;48.632;10.156;2022-10-16T16:21:20;23.70;99.90
4739;DHT22;2383;48.632;10.156;2022-10-16T16:25:22;23.60;99.90
4739;DHT22;2383;48.632;10.156;2022-10-16T16:29:24;23.60;99.90
4739;DHT22;2383;48.632;10.156;2022-10-16T16:33:30;23.60;99.90
4739;DHT22;2383;48.632;10.156;2022-10-16T16:37:33;23.40;99.90
4739;DHT22;2383;48.632;10.156;2022-10-16T16:41:35;23.40;99.90
4739;DHT22;2383;48.632;10.156;2022-10-16T16:45:36;23.30;99.90
4739;DHT22;2383;48.632;10.156;2022-10-16T16:49:38;23.40;99.90
4739;DHT22;2383;48.632;10.156;2022-10-16T16:53:42;23.30;99.90
4739;DHT22;2383;48.632;10.156;2022-10-16T16:57:49;23.30;99.90
4739;DHT22;2383;48.632;10.156;2022-10-16T17:01:54;23.30;99.90
4739;DHT22;2383;48.632;10.156;2022-10-16T17:05:58;23.20;99.90
4739;DHT22;2383;48.632;10.156;2022-10-16T17:10:01;23.40;99.90
4739;DHT22;2383;48.632;10.156;2022-10-16T17:14:02;23.10;99.90
4739;DHT22;2383;48.632;10.156;2022-10-16T17:18:04;23.00;99.90
4739;DHT22;2383;48.632;10.156;2022-10-16T17:22:06;23.00;99.90
4739;DHT22;2383;48.632;10.156;2022-10-16T17:26:11;22.90;99.90
4739;DHT22;2383;48.632;10.156;2022-10-16T17:30:14;22.80;99.90
4739;DHT22;2383;48.632;10.156;2022-10-16T17:34:16;22.80;99.90
4739;DHT22;2383;48.632;10.156;2022-10-16T17:38:18;22.80;99.90
4739;DHT22;2383;48.632;10.156;2022-10-16T17:42:22;22.70;99.90
4739;DHT22;2383;48.632;10.156;2022-10-16T17:46:24;22.40;99.90
4739;DHT22;2383;48.632;10.156;2022-10-16T17:50:26;22.50;99.90
4739;DHT22;2383;48.632;10.156;2022-10-16T17:54:28;22.50;99.90
4739;DHT22;2383;48.632;10.156;2022-10-16T17:58:30;22.40;99.90
4739;DHT22;2383;48.632;10.156;2022-10-16T18:02:32;22.30;99.90
4739;DHT22;2383;48.632;10.156;2022-10-16T18:06:35;22.40;99.90
4739;DHT22;2383;48.632;10.156;2022-10-16T18:10:45;22.00;99.90
4739;DHT22;2383;48.632;10.156;2022-10-16T18:14:47;21.80;99.90
4739;DHT22;2383;48.632;10.156;2022-10-16T18:18:50;21.80;99.90
4739;DHT22;2383;48.632;10.156;2022-10-16T18:22:52;21.80;99.90
4739;DHT22;2383;48.632;10.156;2022-10-16T18:26:55;21.80;99.90
4739;DHT22;2383;48.632;10.156;2022-10-16T18:30:59;21.60;99.90
4739;DHT22;2383;48.632;10.156;2022-10-16T18:35:01;21.50;99.90
4739;DHT22;2383;48.632;10.156;2022-10-16T18:39:05;21.40;99.90
4739;DHT22;2383;48.632;10.156;2022-10-16T18:43:10;21.00;99.90
4739;DHT22;2383;48.632;10.156;2022-10-16T18:47:12;21.00;99.90
4739;DHT22;2383;48.632;10.156;2022-10-16T18:55:20;20.70;99.90
4739;DHT22;2383;48.632;10.156;2022-10-16T18:59:38;21.10;99.90
4739;DHT22;2383;48.632;10.156;2022-10-16T19:03:41;20.90;99.90
4739;DHT22;2383;48.632;10.156;2022-10-16T19:07:46;20.90;99.90
4739;DHT22;2383;48.632;10.156;2022-10-16T19:11:49;21.20;99.90
4739;DHT22;2383;48.632;10.156;2022-10-16T19:15:50;20.30;99.90
4739;DHT22;2383;48.632;10.156;2022-10-16T19:19:59;20.40;99.90
4739;DHT22;2383;48.632;10.156;2022-10-16T19:24:09;20.60;99.90
4739;DHT22;2383;48.632;10.156;2022-10-16T19:28:11;20.40;99.90
4739;DHT22;2383;48.632;10.156;2022-10-16T19:32:13;20.20;99.90
4739;DHT22;2383;48.632;10.156;2022-10-16T19:36:22;20.10;99.90
4739;DHT22;2383;48.632;10.156;2022-10-16T19:40:25;20.30;99.90
4739;DHT22;2383;48.632;10.156;2022-10-16T19:44:27;20.20;99.90
4739;DHT22;2383;48.632;10.156;2022-10-16T19:48:29;20.10;99.90
4739;DHT22;2383;48.632;10.156;2022-10-16T19:52:45;20.10;99.90
4739;DHT22;2383;48.632;10.156;2022-10-16T19:56:47;20.00;99.90
4739;DHT22;2383;48.632;10.156;2022-10-16T20:00:49;20.00;99.90
4739;DHT22;2383;48.632;10.156;2022-10-16T20:04:54;19.70;99.90
4739;DHT22;2383;48.632;10.156;2022-10-16T20:08:56;19.60;99.90
4739;DHT22;2383;48.632;10.156;2022-10-16T20:13:05;19.60;99.90
4739;DHT22;2383;48.632;10.156;2022-10-16T20:17:08;19.80;99.90
4739;DHT22;2383;48.632;10.156;2022-10-16T20:21:17;19.80;99.90
4739;DHT22;2383;48.632;10.156;2022-10-16T20:25:22;19.60;99.90
4739;DHT22;2383;48.632;10.156;2022-10-16T20:29:24;19.70;99.90
4739;DHT22;2383;48.632;10.156;2022-10-16T20:33:26;19.20;99.90
4739;DHT22;2383;48.632;10.156;2022-10-16T20:37:30;19.40;99.90
4739;DHT22;2383;48.632;10.156;2022-10-16T20:41:41;19.50;99.90
4739;DHT22;2383;48.632;10.156;2022-10-16T20:45:45;19.10;99.90
4739;DHT22;2383;48.632;10.156;2022-10-16T20:49:49;19.80;99.90
4739;DHT22;2383;48.632;10.156;2022-10-16T20:54:03;19.90;99.90
4739;DHT22;2383;48.632;10.156;2022-10-16T20:58:05;19.50;99.90
4739;DHT22;2383;48.632;10.156;2022-10-16T21:02:10;19.40;99.90
4739;DHT22;2383;48.632;10.156;2022-10-16T21:06:15;19.50;99.90
4739;DHT22;2383;48.632;10.156;2022-10-16T21:10:17;19.60;99.90
4739;DHT22;2383;48.632;10.156;2022-10-16T21:14:20;19.40;99.90
4739;DHT22;2383;48.632;10.156;2022-10-16T21:18:22;19.40;99.90
4739;DHT22;2383;48.632;10.156;2022-10-16T21:22:37;19.40;99.90
4739;DHT22;2383;48.632;10.156;2022-10-16T21:26:41;19.50;99.90
4739;DHT22;2383;48.632;10.156;2022-10-16T21:30:45;19.30;99.90
4739;DHT22;2383;48.632;10.156;2022-10-16T21:34:47;19.20;99.90
4739;DHT22;2383;48.632;10.156;2022-10-16T21:38:49;19.10;99.90
4739;DHT22;2383;48.632;10.156;2022-10-16T21:42:58;19.20;99.90
4739;DHT22;2383;48.632;10.156;2022-10-16T21:47:02;19.10;99.90
4739;DHT22;2383;48.632;10.156;2022-10-16T21:51:07;19.00;99.90
4739;DHT22;2383;48.632;10.156;2022-10-16T21:55:18;18.60;99.90
4739;DHT22;2383;48.632;10.156;2022-10-16T21:59:41;18.60;99.90
4739;DHT22;2383;48.632;10.156;2022-10-16T22:03:43;19.00;99.90
4739;DHT22;2383;48.632;10.156;2022-10-16T22:07:48;18.90;99.90
4739;DHT22;2383;48.632;10.156;2022-10-16T22:11:50;18.80;99.90
4739;DHT22;2383;48.632;10.156;2022-10-16T22:15:55;18.70;99.90
4739;DHT22;2383;48.632;10.156;2022-10-16T22:19:57;18.70;99.90
4739;DHT22;2383;48.632;10.156;2022-10-16T22:23:59;18.60;99.90
4739;DHT22;2383;48.632;10.156;2022-10-16T22:28:03;18.60;99.90
4739;DHT22;2383;48.632;10.156;2022-10-16T22:32:06;18.30;99.90
4739;DHT22;2383;48.632;10.156;2022-10-16T22:36:15;18.30;99.90
4739;DHT22;2383;48.632;10.156;2022-10-16T22:40:17;18.30;99.90
4739;DHT22;2383;48.632;10.156;2022-10-16T22:44:22;18.40;99.90
4739;DHT22;2383;48.632;10.156;2022-10-16T22:48:35;18.30;99.90
4739;DHT22;2383;48.632;10.156;2022-10-16T22:52:38;18.40;99.90
4739;DHT22;2383;48.632;10.156;2022-10-16T22:56:57;18.20;99.90
4739;DHT22;2383;48.632;10.156;2022-10-16T23:01:12;18.20;99.90
4739;DHT22;2383;48.632;10.156;2022-10-16T23:05:15;18.10;99.90
4739;DHT22;2383;48.632;10.156;2022-10-16T23:09:17;18.20;99.90
4739;DHT22;2383;48.632;10.156;2022-10-16T23:13:20;18.00;99.90
4739;DHT22;2383;48.632;10.156;2022-10-16T23:17:21;18.00;99.90
4739;DHT22;2383;48.632;10.156;2022-10-16T23:21:26;18.10;99.90
4739;DHT22;2383;48.632;10.156;2022-10-16T23:25:29;18.00;99.90
4739;DHT22;2383;48.632;10.156;2022-10-16T23:29:31;18.00;99.90
4739;DHT22;2383;48.632;10.156;2022-10-16T23:33:34;18.10;99.90
4739;DHT22;2383;48.632;10.156;2022-10-16T23:37:36;17.70;99.90
4739;DHT22;2383;48.632;10.156;2022-10-16T23:41:38;17.90;99.90
4739;DHT22;2383;48.632;10.156;2022-10-16T23:45:45;17.90;99.90
4739;DHT22;2383;48.632;10.156;2022-10-16T23:49:48;17.80;99.90
4739;DHT22;2383;48.632;10.156;2022-10-16T23:53:50;17.70;99.90
4739;DHT22;2383;48.632;10.156;2022-10-16T23:57:53;18.10;99.90
